Allegoria — CQDC — position and weather

sailwx.info

Track history (hours):
 
Tides and Currents Weather Stations Pressure Air Temp Water Temp Dewpoint Dewpoint Depression Visibility Wind Speed Wind Dir Waves Ship Positions

Allegoria

Last reported at 2017-Nov-19 22:23 UTC. Time now 2017-Nov-24 14:49 UTC.
Position S 24°01' W 045°51'.

Length 275 m; draft 14 m.

Type: Ship (hazmat cat D). MMSI: 255805779.

Date/timePositionNaut miles runAvg speedWind from/ knotsBaromVisibWave heightAir tempDewpointWater temp
2017-Nov-19 22:23S 24°01' W 045°51'513.1
2017-Nov-19 22:00S 24°01' W 045°56'612.9
2017-Nov-19 21:30S 24°02' W 046°03'713.1
2017-Nov-19 21:00S 24°04' W 046°10'613.0
2017-Nov-19 20:30S 24°05' W 046°17'4 8.1
2017-Nov-19 20:00S 24°04' W 046°22'4 8.8
2017-Nov-19 19:30S 24°00' W 046°20'3 6.0
2017-Nov-19 19:01S 23°58' W 046°17'1 0.1
2017-Nov-19 02:05S 23°58' W 046°18'1 6.5
2017-Nov-19 02:00S 23°58' W 046°18'3 6.7
2017-Nov-19 01:30S 24°00' W 046°20'510.2
2017-Nov-19 01:00S 24°05' W 046°23'2 4.7
2017-Nov-19 00:30S 24°07' W 046°24'5 9.0
2017-Nov-19 00:01S 24°11' W 046°26'815.9
2017-Nov-18 23:30S 24°19' W 046°29'816.0
2017-Nov-18 23:00S 24°26' W 046°33'815.8
2017-Nov-18 22:30S 24°33' W 046°38'815.8
2017-Nov-18 21:59S 24°39' W 046°43'  
Track history (hours):
 
Tides and Currents Weather Stations Pressure Air Temp Water Temp Dewpoint Dewpoint Depression Visibility Wind Speed Wind Dir Waves Ship Positions

Allegoria

Last reported at 2017-Nov-19 22:23 UTC. Time now 2017-Nov-24 14:49 UTC.
Position S 24°01' W 045°51'.

Length 275 m; draft 14 m.

Type: Ship (hazmat cat D). MMSI: 255805779.

Date/timePositionNaut miles runAvg speedWind from/ knotsBaromVisibWave heightAir tempDewpointWater temp
2017-Nov-19 22:23S 24°01' W 045°51'513.1
2017-Nov-19 22:00S 24°01' W 045°56'612.9
2017-Nov-19 21:30S 24°02' W 046°03'713.1
2017-Nov-19 21:00S 24°04' W 046°10'613.0
2017-Nov-19 20:30S 24°05' W 046°17'4 8.1
2017-Nov-19 20:00S 24°04' W 046°22'4 8.8
2017-Nov-19 19:30S 24°00' W 046°20'3 6.0
2017-Nov-19 19:01S 23°58' W 046°17'1 0.1
2017-Nov-19 02:05S 23°58' W 046°18'1 6.5
2017-Nov-19 02:00S 23°58' W 046°18'3 6.7
2017-Nov-19 01:30S 24°00' W 046°20'510.2
2017-Nov-19 01:00S 24°05' W 046°23'2 4.7
2017-Nov-19 00:30S 24°07' W 046°24'5 9.0
2017-Nov-19 00:01S 24°11' W 046°26'815.9
2017-Nov-18 23:30S 24°19' W 046°29'816.0
2017-Nov-18 23:00S 24°26' W 046°33'815.8
2017-Nov-18 22:30S 24°33' W 046°38'815.8
2017-Nov-18 21:59S 24°39' W 046°43'  

Dump ship's entire track history